Home   Weather   Germany   Bad Hersfeld   Past weeks
Flag for Germany

Past Weather in Bad Hersfeld, Hesse, Germany — October 2017

Currently: 34 °F. Partly cloudy. (Weather station: Fritzlar Airport, Germany). See more current weather

October 2017 Weather in Bad Hersfeld — Graph

°F

High & Low Weather Summary for October 2017

 TemperatureHumidityPressure
High70 °F (Oct 15, 3:20 pm)100% (Oct 1, 6:20 am)30.36 "Hg (Oct 1, 6:20 am)
Low39 °F (Oct 9, 1:20 am)52% (Oct 12, 2:20 pm)29.53 "Hg (Oct 29, 4:20 am)
Average52 °F83%30.08 "Hg
* Reported Oct 1 12:20 am — Oct 31 11:20 pm, Bad Hersfeld. Weather by CustomWeather, © 2024

Note: Actual official high and low records may vary slightly from our data, if they occured in-between our weather recording intervals... More about our weather records

Bad Hersfeld Weather History for October 1, 2017

Scroll right to see more
 ConditionsComfort  
Time TempWeatherWind HumidityBarometerVisibility
12:20 am
Sun, Oct 1
54 °FCool.2 mph88%30.09 "Hg3 mi
1:20 am54 °FCool.1 mph88%30.09 "Hg4 mi
2:20 am54 °FCool.2 mph94%30.09 "Hg4 mi
3:20 am52 °FCool.2 mph94%30.09 "Hg4 mi
4:20 am52 °FCool.2 mph94%30.12 "Hg4 mi
5:20 am50 °FCool.3 mph94%30.12 "Hg4 mi
6:20 am46 °FCool.5 mph100%30.15 "Hg4 mi
7:20 am46 °FCool.3 mph100%30.15 "Hg1 mi
8:20 am46 °FCool.1 mph93%30.18 "Hg1 mi
9:20 am50 °FCool.1 mph88%30.18 "Hg3 mi
10:20 am52 °FCool.6 mph88%30.18 "Hg4 mi
11:20 am54 °FCool.8 mph82%30.18 "Hg4 mi
12:20 pm54 °FCool.10 mph82%30.18 "Hg4 mi
1:20 pm55 °FCool.9 mph77%30.18 "Hg4 mi
2:20 pm57 °FCool.10 mph72%30.15 "Hg5 mi
3:20 pm59 °FCool.8 mph72%30.15 "HgN/A
4:20 pm61 °FCool.9 mph63%30.15 "HgN/A
5:20 pm59 °FCool.9 mph63%30.15 "HgN/A
6:20 pm59 °FCool.3 mph63%30.12 "HgN/A
7:20 pm52 °FCool.5 mph88%30.15 "Hg4 mi
8:20 pm50 °FCool.5 mph82%30.15 "Hg4 mi
9:20 pm50 °FCool.2 mph88%30.15 "Hg4 mi
10:20 pm46 °FCool.2 mph93%30.12 "Hg4 mi
11:20 pm48 °FCool.3 mph87%30.12 "Hg4 mi
Weather by CustomWeather, © 2024

See weather overview